Time;durP1;ratioP1;P1;durP2;ratioP2;P2;SDS_P1;SDS_P2;PMS_P1;PMS_P2;Temp;Humidity;BMP_temperature;BMP_pressure;BME280_temperature;BME280_humidity;BME280_pressure;Samples;Min_cycle;Max_cycle;Signal;HPM_P1;HPM_P2
2023/01/18 00:00:38;;;;;;;0.07;0.07;;;;;;;19.67;31.92;93394.19;4988421;28;20453;-62
2023/01/18 00:03:07;;;;;;;0.20;0.20;;;;;;;19.65;31.86;93399.06;4989497;28;20445;-66
2023/01/18 00:05:39;;;;;;;0.60;0.60;;;;;;;19.55;31.90;93404.91;4988574;28;20529;-66
2023/01/18 00:08:11;;;;;;;0.00;0.00;;;;;;;19.45;31.96;93400.16;4989443;28;20453;-62
2023/01/18 00:10:38;;;;;;;0.00;0.00;;;;;;;19.50;31.78;93397.22;4988080;28;20532;-65
2023/01/18 00:13:05;;;;;;;0.00;0.00;;;;;;;19.44;32.04;93409.22;4989221;28;20501;-61
2023/01/18 00:15:33;;;;;;;0.00;0.00;;;;;;;19.30;32.38;93406.22;4988542;28;21055;-66
2023/01/18 00:18:00;;;;;;;0.00;0.00;;;;;;;18.91;32.42;93413.25;4989060;28;20469;-62
2023/01/18 00:20:28;;;;;;;0.00;0.00;;;;;;;19.38;31.95;93421.25;4988592;28;20448;-61
2023/01/18 00:22:58;;;;;;;0.00;0.00;;;;;;;19.77;31.52;93417.53;4988681;28;20477;-65
2023/01/18 00:25:25;;;;;;;0.00;0.00;;;;;;;19.86;31.28;93410.13;4988761;28;20905;-65
2023/01/18 00:27:53;;;;;;;0.00;0.00;;;;;;;19.67;31.70;93402.16;4989006;28;20453;-62
2023/01/18 00:30:26;;;;;;;0.30;0.30;;;;;;;19.54;32.32;93414.00;4967281;28;20481;-65
2023/01/18 00:32:55;;;;;;;0.00;0.00;;;;;;;19.69;31.91;93427.25;4983367;28;20453;-62
2023/01/18 00:35:24;;;;;;;0.30;0.20;;;;;;;19.69;31.71;93423.84;4988537;28;20861;-62
2023/01/18 00:37:52;;;;;;;0.00;0.00;;;;;;;19.71;31.73;93416.25;4988491;28;20568;-64
2023/01/18 00:40:21;;;;;;;0.00;0.00;;;;;;;19.48;31.93;93426.00;4988356;28;20445;-65
2023/01/18 00:45:33;;;;;;;0.20;0.20;;;;;;;19.57;31.64;93386.75;4988187;28;20956;-66
2023/01/18 00:48:01;;;;;;;0.10;0.10;;;;;;;19.56;31.91;93387.88;4989006;28;20438;-64
2023/01/18 00:50:28;;;;;;;2.23;0.93;;;;;;;19.23;32.30;93403.41;4988137;28;20480;-65
2023/01/18 00:52:57;;;;;;;0.00;0.00;;;;;;;19.44;31.83;93393.28;4988734;28;20437;-62
2023/01/18 00:55:25;;;;;;;0.00;0.00;;;;;;;19.43;31.93;93395.19;4988333;28;20477;-62
2023/01/18 00:57:52;;;;;;;0.20;0.20;;;;;;;19.73;31.79;93385.56;4990568;28;20473;-62
2023/01/18 01:00:25;;;;;;;0.23;0.23;;;;;;;19.38;32.23;93384.81;4991997;28;20450;-63
2023/01/18 01:02:53;;;;;;;0.10;0.10;;;;;;;19.45;32.63;93397.50;4992458;28;20442;-63
2023/01/18 01:08:15;;;;;;;0.10;0.10;;;;;;;18.85;33.25;93414.66;4992812;28;20560;-64
2023/01/18 01:10:45;;;;;;;0.00;0.00;;;;;;;18.72;33.21;93416.56;4991971;28;20444;-62
2023/01/18 01:27:10;;;;;;;1.30;0.40;;;;;;;19.05;33.42;93425.00;4992257;28;20496;-66
2023/01/18 01:29:37;;;;;;;0.07;0.07;;;;;;;19.10;33.40;93408.78;4991677;28;20456;-65
2023/01/18 01:32:04;;;;;;;0.07;0.07;;;;;;;19.00;33.77;93422.59;4991912;28;20532;-66
2023/01/18 01:34:32;;;;;;;0.63;0.63;;;;;;;19.01;33.86;93432.09;4991386;28;20472;-63
2023/01/18 01:36:58;;;;;;;0.00;0.00;;;;;;;18.79;34.12;93422.09;4992139;28;20945;-65
2023/01/18 01:39:25;;;;;;;0.00;0.00;;;;;;;18.84;33.93;93408.56;4992017;28;20964;-65
2023/01/18 01:41:52;;;;;;;0.20;0.20;;;;;;;18.44;34.92;93426.47;4991977;28;20486;-62
2023/01/18 01:44:19;;;;;;;0.10;0.10;;;;;;;18.88;34.01;93429.88;4992155;28;20442;-64
2023/01/18 01:46:51;;;;;;;1.70;0.40;;;;;;;18.74;33.57;93414.34;4991421;28;20453;-63
2023/01/18 01:49:31;;;;;;;0.03;0.03;;;;;;;19.05;33.28;93417.03;4991946;28;20448;-62
2023/01/18 01:52:03;;;;;;;0.10;0.10;;;;;;;19.45;32.93;93418.75;4991759;28;20951;-62
2023/01/18 01:54:56;;;;;;;0.00;0.00;;;;;;;19.00;33.56;93451.78;4991824;28;20500;-63
2023/01/18 01:57:27;;;;;;;0.00;0.00;;;;;;;18.96;33.63;93439.53;4993389;28;21053;-64
2023/01/18 02:00:02;;;;;;;0.00;0.00;;;;;;;18.69;34.69;93433.19;4993124;28;20957;-65
2023/01/18 02:02:38;;;;;;;0.00;0.00;;;;;;;19.02;33.60;93446.91;5002552;28;20503;-61
2023/01/18 02:05:08;;;;;;;0.00;0.00;;;;;;;18.87;33.50;93452.19;5002595;28;20446;-62
2023/01/18 02:07:35;;;;;;;0.10;0.10;;;;;;;18.73;33.26;93427.97;4989115;28;20442;-62
2023/01/18 02:10:03;;;;;;;0.10;0.10;;;;;;;18.92;33.38;93409.50;4996764;28;20453;-62
2023/01/18 02:12:31;;;;;;;0.10;0.10;;;;;;;19.47;32.59;93403.97;4991174;28;20481;-62
2023/01/18 02:14:59;;;;;;;0.00;0.00;;;;;;;18.26;34.01;93433.16;4991197;28;20446;-66
2023/01/18 02:17:46;;;;;;;0.00;0.00;;;;;;;19.51;32.33;93415.47;4991113;28;20456;-64
2023/01/18 02:20:47;;;;;;;0.00;0.00;;;;;;;19.21;32.86;93407.16;4991006;28;20516;-65
2023/01/18 02:23:41;;;;;;;0.03;0.03;;;;;;;18.67;33.73;93430.09;4991095;28;20445;-63
2023/01/18 02:26:29;;;;;;;0.23;0.23;;;;;;;19.26;32.76;93429.25;4990696;28;20448;-65
2023/01/18 02:29:17;;;;;;;0.10;0.10;;;;;;;18.73;33.81;93386.28;4991348;28;20433;-62
2023/01/18 02:32:12;;;;;;;0.13;0.13;;;;;;;18.26;34.78;93403.22;4989646;28;20557;-62
2023/01/18 02:34:47;;;;;;;0.00;0.00;;;;;;;18.58;33.78;93410.13;4990328;28;20794;-63
2023/01/18 02:40:53;;;;;;;0.20;0.20;;;;;;;18.96;33.87;93399.72;4979421;28;20838;-63
2023/01/18 02:46:32;;;;;;;0.10;0.10;;;;;;;19.21;33.82;93414.38;4980506;28;20468;-61
2023/01/18 02:49:07;;;;;;;0.37;0.20;;;;;;;19.39;33.58;93422.78;4990125;28;20453;-62
2023/01/18 02:51:34;;;;;;;1.07;0.97;;;;;;;19.34;33.72;93413.19;4989641;28;20471;-65
2023/01/18 02:54:23;;;;;;;0.00;0.00;;;;;;;19.46;33.58;93391.81;4990527;28;20466;-64
2023/01/18 02:56:52;;;;;;;0.47;0.40;;;;;;;19.54;33.88;93414.00;4989712;28;20576;-62
2023/01/18 02:59:19;;;;;;;0.00;0.00;;;;;;;19.40;34.12;93440.22;4989240;28;20541;-63
2023/01/18 03:01:52;;;;;;;0.00;0.00;;;;;;;18.98;34.73;93446.06;4989637;28;21026;-65
2023/01/18 03:04:27;;;;;;;0.00;0.00;;;;;;;17.67;36.56;93466.66;4990155;28;20461;-65
2023/01/18 03:07:20;;;;;;;0.10;0.10;;;;;;;17.60;35.06;93439.97;4989999;28;20454;-62
2023/01/18 03:09:47;;;;;;;0.40;0.20;;;;;;;18.55;34.04;93424.09;4988139;28;21268;-65
2023/01/18 03:12:17;;;;;;;0.00;0.00;;;;;;;19.12;32.92;93409.22;4990044;28;20446;-64
2023/01/18 03:14:53;;;;;;;0.00;0.00;;;;;;;18.96;32.75;93426.25;4988985;28;20450;-62
2023/01/18 03:17:45;;;;;;;0.00;0.00;;;;;;;19.08;32.85;93419.00;4989790;28;20481;-61
2023/01/18 03:20:18;;;;;;;0.10;0.10;;;;;;;19.58;32.42;93409.56;4989027;28;20484;-64
2023/01/18 03:25:40;;;;;;;0.00;0.00;;;;;;;18.72;33.22;93384.75;4989233;28;20496;-62
2023/01/18 03:34:13;;;;;;;0.00;0.00;;;;;;;19.90;31.53;93416.31;4979528;28;20532;-62
2023/01/18 03:36:46;;;;;;;0.10;0.10;;;;;;;19.71;32.06;93402.97;4989026;28;20509;-64
2023/01/18 03:39:22;;;;;;;0.10;0.10;;;;;;;19.60;32.37;93396.66;4989559;28;20557;-65
2023/01/18 03:41:52;;;;;;;0.10;0.10;;;;;;;19.58;31.75;93377.66;4988983;28;20800;-62
2023/01/18 03:44:28;;;;;;;0.03;0.03;;;;;;;19.61;32.22;93388.38;4989474;28;20504;-62
2023/01/18 03:46:56;;;;;;;0.30;0.20;;;;;;;19.39;32.29;93401.53;4989360;28;20901;-63
2023/01/18 03:49:26;;;;;;;0.17;0.17;;;;;;;19.69;31.95;93397.25;4989517;28;21478;-64
2023/01/18 03:51:58;;;;;;;0.00;0.00;;;;;;;19.77;31.90;93406.91;4989159;28;20457;-66
2023/01/18 03:54:40;;;;;;;0.03;0.03;;;;;;;19.66;32.10;93419.19;4989401;28;20441;-65
2023/01/18 03:57:37;;;;;;;1.50;0.87;;;;;;;18.94;32.68;93418.66;4989391;28;20496;-63
2023/01/18 04:00:08;;;;;;;0.00;0.00;;;;;;;19.25;32.32;93401.94;4988812;28;20895;-65
2023/01/18 04:02:45;;;;;;;0.43;0.33;;;;;;;19.90;31.85;93392.38;4989395;28;20437;-64
2023/01/18 04:05:13;;;;;;;0.00;0.00;;;;;;;20.00;31.58;93378.50;4988636;28;20450;-63
2023/01/18 04:07:41;;;;;;;0.47;0.47;;;;;;;19.98;31.57;93391.41;4988924;28;20873;-65
2023/01/18 04:10:09;;;;;;;0.00;0.00;;;;;;;19.51;31.90;93412.03;4987983;28;20446;-65
2023/01/18 04:12:36;;;;;;;0.00;0.00;;;;;;;18.70;32.99;93434.72;4989207;28;20932;-68
2023/01/18 04:15:04;;;;;;;0.07;0.07;;;;;;;18.40;32.85;93428.22;4987822;28;20441;-62
2023/01/18 04:17:30;;;;;;;0.30;0.30;;;;;;;19.62;31.42;93416.47;4987747;28;20476;-62
2023/01/18 04:19:57;;;;;;;0.00;0.00;;;;;;;19.86;30.75;93410.91;4988260;28;20453;-65
2023/01/18 04:22:25;;;;;;;0.00;0.00;;;;;;;20.14;30.44;93424.75;4989080;28;20441;-64
2023/01/18 04:24:52;;;;;;;0.10;0.10;;;;;;;19.67;31.21;93407.47;4988132;28;20449;-64
2023/01/18 04:27:19;;;;;;;0.10;0.10;;;;;;;18.98;31.53;93414.19;4987750;28;20512;-64
2023/01/18 04:29:46;;;;;;;0.13;0.13;;;;;;;18.91;31.60;93424.66;4988031;28;21523;-64
2023/01/18 04:32:13;;;;;;;0.20;0.20;;;;;;;19.30;31.88;93377.00;4989166;28;20520;-63
2023/01/18 04:34:40;;;;;;;0.10;0.10;;;;;;;19.36;31.38;93391.59;4991891;28;20453;-64
2023/01/18 04:37:07;;;;;;;0.00;0.00;;;;;;;19.14;31.52;93411.56;4992182;28;21097;-64
2023/01/18 04:39:35;;;;;;;0.00;0.00;;;;;;;19.89;30.78;93409.47;4991405;28;20441;-62
2023/01/18 04:42:02;;;;;;;0.27;0.27;;;;;;;18.75;31.94;93431.84;4992565;28;20445;-61
2023/01/18 04:44:29;;;;;;;0.27;0.27;;;;;;;18.45;32.40;93406.78;4991980;28;20960;-67
2023/01/18 04:46:55;;;;;;;0.00;0.00;;;;;;;18.52;32.16;93390.31;4992517;28;20453;-67
2023/01/18 04:49:23;;;;;;;0.00;0.00;;;;;;;19.51;31.30;93385.47;4992381;28;20544;-64
2023/01/18 04:51:49;;;;;;;0.10;0.10;;;;;;;18.70;31.86;93397.56;4991642;28;20496;-66
2023/01/18 04:54:17;;;;;;;0.00;0.00;;;;;;;19.80;30.61;93376.97;4992147;28;20452;-67
2023/01/18 04:56:44;;;;;;;0.00;0.00;;;;;;;20.23;30.07;93379.41;4991626;28;20481;-65
2023/01/18 04:59:14;;;;;;;0.00;0.00;;;;;;;20.03;30.28;93385.81;4991523;28;20897;-64
2023/01/18 05:01:42;;;;;;;0.03;0.03;;;;;;;19.32;30.87;93418.06;4990540;28;20445;-63
2023/01/18 05:04:09;;;;;;;0.00;0.00;;;;;;;19.49;30.93;93398.34;4991377;28;20442;-65
2023/01/18 05:06:36;;;;;;;0.00;0.00;;;;;;;19.89;30.28;93380.97;4988974;28;20446;-69
2023/01/18 05:09:02;;;;;;;0.40;0.30;;;;;;;19.76;30.27;93416.75;4992030;28;20441;-64
2023/01/18 05:11:29;;;;;;;0.30;0.30;;;;;;;19.89;30.61;93386.28;4991427;28;20457;-65
2023/01/18 05:13:56;;;;;;;5.70;0.47;;;;;;;19.86;30.48;93379.00;4991831;28;20453;-65
2023/01/18 05:16:23;;;;;;;0.00;0.00;;;;;;;19.82;30.18;93409.28;4991765;28;20485;-64
2023/01/18 05:18:50;;;;;;;0.00;0.00;;;;;;;20.25;30.01;93390.44;4991481;28;20465;-64
2023/01/18 05:21:17;;;;;;;0.20;0.20;;;;;;;19.82;30.42;93393.34;4992043;28;20496;-66
2023/01/18 05:23:44;;;;;;;0.10;0.10;;;;;;;19.41;31.03;93401.94;4991675;28;20939;-62
2023/01/18 05:26:17;;;;;;;0.00;0.00;;;;;;;19.75;30.21;93379.91;4991645;28;20456;-65
2023/01/18 05:28:45;;;;;;;0.83;0.80;;;;;;;19.61;30.75;93403.53;4991992;28;20441;-63
2023/01/18 05:31:13;;;;;;;0.00;0.00;;;;;;;20.02;30.07;93416.94;4991114;28;20501;-65
2023/01/18 05:33:40;;;;;;;0.10;0.10;;;;;;;19.91;30.43;93413.28;4991872;28;20452;-64
2023/01/18 05:36:07;;;;;;;0.47;0.47;;;;;;;19.35;30.97;93428.00;4990989;28;21099;-62
2023/01/18 05:38:34;;;;;;;0.97;0.93;;;;;;;19.79;30.91;93444.53;4992554;28;20495;-62
2023/01/18 05:41:01;;;;;;;1.07;0.40;;;;;;;19.24;31.40;93429.59;4990808;28;20453;-62
2023/01/18 05:43:28;;;;;;;1.93;1.80;;;;;;;20.52;30.07;93407.28;4991313;28;20488;-64
2023/01/18 05:45:55;;;;;;;0.00;0.00;;;;;;;20.24;29.52;93442.09;4990292;28;20450;-62
2023/01/18 05:48:23;;;;;;;0.20;0.20;;;;;;;20.02;29.92;93422.25;4990015;28;20460;-65
2023/01/18 05:50:54;;;;;;;0.33;0.33;;;;;;;19.75;30.39;93425.09;4988889;28;20948;-64
2023/01/18 05:53:21;;;;;;;0.10;0.10;;;;;;;19.76;30.56;93438.03;4990084;28;20663;-65
2023/01/18 05:55:57;;;;;;;0.07;0.07;;;;;;;19.71;30.38;93445.50;4988817;28;20994;-65
2023/01/18 05:58:25;;;;;;;0.30;0.30;;;;;;;20.21;30.01;93442.81;4989956;28;20448;-65
2023/01/18 06:00:52;;;;;;;0.20;0.20;;;;;;;19.46;30.74;93446.84;4989938;28;20441;-67
2023/01/18 06:03:20;;;;;;;0.97;0.60;;;;;;;19.52;32.97;93453.44;4991557;28;20484;-62
2023/01/18 06:05:47;;;;;;;0.17;0.17;;;;;;;19.30;31.83;93427.47;4990557;28;20465;-64
2023/01/18 06:08:14;;;;;;;6.27;2.07;;;;;;;19.60;30.93;93434.63;4991753;28;20458;-67
2023/01/18 06:10:42;;;;;;;2.57;0.87;;;;;;;18.88;31.81;93441.28;4991369;28;20438;-66
2023/01/18 06:13:09;;;;;;;0.10;0.10;;;;;;;19.53;30.97;93428.38;4991828;28;20496;-69
2023/01/18 06:15:36;;;;;;;0.00;0.00;;;;;;;19.74;30.67;93436.84;4991242;28;20441;-67
2023/01/18 06:18:03;;;;;;;0.00;0.00;;;;;;;19.36;31.42;93445.47;4991774;28;20528;-68
2023/01/18 06:20:30;;;;;;;0.53;0.53;;;;;;;20.10;30.14;93463.06;4990699;28;20450;-63
2023/01/18 06:22:57;;;;;;;0.00;0.00;;;;;;;19.53;30.48;93465.59;4991209;28;20554;-66
2023/01/18 06:25:24;;;;;;;0.27;0.27;;;;;;;19.89;30.67;93462.63;4988236;28;20512;-71
2023/01/18 06:27:51;;;;;;;0.00;0.00;;;;;;;19.09;31.76;93476.28;4988999;28;20442;-69
2023/01/18 06:30:19;;;;;;;0.00;0.00;;;;;;;20.02;30.52;93475.44;4987695;28;20539;-63
2023/01/18 06:32:48;;;;;;;0.20;0.20;;;;;;;19.46;30.91;93470.75;4987155;28;20842;-68
2023/01/18 06:35:15;;;;;;;0.00;0.00;;;;;;;19.75;30.97;93475.59;4988620;28;20446;-71
2023/01/18 06:37:44;;;;;;;0.00;0.00;;;;;;;19.30;31.31;93489.31;4989419;28;20491;-64
2023/01/18 06:40:11;;;;;;;2.10;0.47;;;;;;;19.57;31.31;93487.69;4989483;28;20951;-63
2023/01/18 06:42:40;;;;;;;0.07;0.07;;;;;;;19.78;31.25;93477.56;4990989;28;20955;-66
2023/01/18 06:45:07;;;;;;;0.37;0.37;;;;;;;19.33;32.27;93471.94;4990327;28;20445;-59
2023/01/18 06:47:34;;;;;;;0.00;0.00;;;;;;;19.47;31.83;93461.66;4990482;28;20870;-61
2023/01/18 06:50:00;;;;;;;0.00;0.00;;;;;;;19.29;32.06;93465.78;4989963;28;20508;-60
2023/01/18 06:52:27;;;;;;;3.63;0.67;;;;;;;20.18;30.76;93438.19;4990468;28;21034;-62
2023/01/18 06:54:54;;;;;;;0.40;0.40;;;;;;;20.27;30.81;93451.28;4989384;28;20813;-62
2023/01/18 06:57:21;;;;;;;0.00;0.00;;;;;;;19.41;31.74;93449.75;4990275;28;20465;-61
2023/01/18 06:59:48;;;;;;;0.00;0.00;;;;;;;19.77;31.70;93438.81;4989758;28;21149;-61
2023/01/18 07:02:15;;;;;;;1.20;0.83;;;;;;;20.47;30.58;93428.88;4990623;28;20473;-62
2023/01/18 07:04:44;;;;;;;0.20;0.20;;;;;;;19.61;31.66;93419.47;4988554;28;20477;-63
2023/01/18 07:07:12;;;;;;;0.10;0.10;;;;;;;19.96;31.46;93446.81;4989711;28;20454;-59
2023/01/18 07:09:39;;;;;;;0.00;0.00;;;;;;;19.30;32.34;93430.13;4989361;28;20477;-59
2023/01/18 07:12:05;;;;;;;0.00;0.00;;;;;;;19.16;32.40;93410.09;4989783;28;20449;-60
2023/01/18 07:14:33;;;;;;;0.23;0.20;;;;;;;19.84;31.21;93439.72;4989537;28;20449;-60
2023/01/18 07:16:59;;;;;;;0.00;0.00;;;;;;;19.13;32.44;93391.41;4990010;28;20485;-59
2023/01/18 07:19:26;;;;;;;1.83;1.07;;;;;;;18.64;32.98;93425.50;4990132;28;20465;-60
2023/01/18 07:21:53;;;;;;;0.00;0.00;;;;;;;19.05;32.51;93409.06;4989359;28;20442;-60
2023/01/18 07:24:21;;;;;;;0.10;0.10;;;;;;;19.99;31.17;93414.22;4989883;28;20473;-61
2023/01/18 07:26:48;;;;;;;0.00;0.00;;;;;;;18.93;32.33;93422.44;4989473;28;20927;-61
2023/01/18 07:29:15;;;;;;;0.20;0.20;;;;;;;19.71;31.29;93434.88;4989818;28;20446;-63
2023/01/18 07:31:42;;;;;;;0.00;0.00;;;;;;;20.02;31.17;93416.94;4988840;28;20890;-62
2023/01/18 07:34:09;;;;;;;0.00;0.00;;;;;;;20.84;29.98;93448.53;4990357;28;20477;-62
2023/01/18 07:36:40;;;;;;;0.37;0.37;;;;;;;19.58;31.65;93426.25;4989161;28;20939;-61
2023/01/18 07:39:08;;;;;;;0.00;0.00;;;;;;;20.07;30.86;93442.50;4989932;28;20442;-63
2023/01/18 07:41:36;;;;;;;2.10;0.90;;;;;;;19.93;31.11;93466.09;4989186;28;20896;-61
2023/01/18 07:44:03;;;;;;;0.00;0.00;;;;;;;20.34;30.71;93425.59;4989891;28;20438;-62
2023/01/18 07:46:31;;;;;;;0.00;0.00;;;;;;;19.63;31.35;93486.31;4987621;28;20641;-66
2023/01/18 07:48:58;;;;;;;0.00;0.00;;;;;;;20.88;30.32;93482.09;4989334;28;20492;-64
2023/01/18 07:51:24;;;;;;;0.00;0.00;;;;;;;20.43;30.37;93516.59;4989011;28;20508;-65
2023/01/18 07:53:53;;;;;;;0.10;0.10;;;;;;;19.96;30.55;93526.56;4989896;28;20461;-65
2023/01/18 07:56:21;;;;;;;0.10;0.10;;;;;;;20.90;29.53;93538.44;4976991;28;20481;-69
2023/01/18 07:58:48;;;;;;;0.20;0.20;;;;;;;21.30;29.30;93555.91;4989239;28;20464;-69
2023/01/18 08:01:20;;;;;;;0.00;0.00;;;;;;;20.90;29.82;93538.44;4988995;28;20445;-66
2023/01/18 08:03:49;;;;;;;0.10;0.10;;;;;;;19.94;31.00;93542.84;4989653;28;20473;-66
2023/01/18 08:06:26;;;;;;;2.80;1.17;;;;;;;20.96;29.58;93553.00;4988267;28;20561;-65
2023/01/18 08:08:54;;;;;;;0.93;0.77;;;;;;;20.27;30.37;93574.41;4989410;28;20449;-70
2023/01/18 08:11:22;;;;;;;0.90;0.83;;;;;;;22.19;28.27;93575.69;4988844;28;20795;-69
2023/01/18 08:13:51;;;;;;;0.00;0.00;;;;;;;22.39;27.77;93558.44;4989003;28;21026;-67
2023/01/18 08:16:18;;;;;;;0.00;0.00;;;;;;;21.54;28.64;93598.22;4989039;28;20982;-65
2023/01/18 08:18:48;;;;;;;0.40;0.40;;;;;;;20.50;30.09;93625.06;4989198;28;20453;-65
2023/01/18 08:21:14;;;;;;;0.10;0.10;;;;;;;21.89;28.81;93604.97;4988170;28;20461;-71
2023/01/18 08:23:41;;;;;;;7.13;1.30;;;;;;;21.01;29.34;93614.00;4987979;28;20437;-66
2023/01/18 08:26:09;;;;;;;0.53;0.53;;;;;;;22.12;28.55;93580.91;4988752;28;20480;-68
2023/01/18 08:28:36;;;;;;;0.10;0.10;;;;;;;22.44;28.09;93600.84;4988116;28;20450;-64
2023/01/18 08:31:15;;;;;;;0.10;0.10;;;;;;;22.11;28.12;93590.06;4988462;28;20485;-63
2023/01/18 08:33:44;;;;;;;0.10;0.10;;;;;;;21.36;29.34;93607.78;4989164;28;20442;-66
2023/01/18 08:36:14;;;;;;;0.10;0.10;;;;;;;20.73;30.19;93576.13;4988204;28;20943;-68
2023/01/18 08:38:41;;;;;;;0.00;0.00;;;;;;;20.38;30.68;93591.38;4989092;28;21010;-66
2023/01/18 08:41:08;;;;;;;0.57;0.43;;;;;;;21.67;29.23;93599.59;4988012;28;20817;-68
2023/01/18 08:43:35;;;;;;;0.20;0.20;;;;;;;22.50;28.54;93566.59;4988837;28;20453;-68
2023/01/18 08:46:03;;;;;;;0.00;0.00;;;;;;;21.31;29.44;93602.75;4988529;28;20829;-66
2023/01/18 08:48:30;;;;;;;0.10;0.10;;;;;;;21.12;29.92;93593.66;4989759;28;20449;-64
2023/01/18 08:51:01;;;;;;;7.23;0.60;;;;;;;20.97;29.94;93596.38;4988260;28;20480;-65
2023/01/18 08:53:29;;;;;;;0.10;0.10;;;;;;;20.30;31.27;93594.97;4989151;28;20452;-67
2023/01/18 08:55:56;;;;;;;0.40;0.40;;;;;;;21.48;29.66;93610.28;4988641;28;20445;-67
2023/01/18 08:58:24;;;;;;;0.50;0.50;;;;;;;21.56;29.29;93625.28;4988652;28;20491;-66
2023/01/18 09:00:52;;;;;;;0.10;0.10;;;;;;;21.34;29.74;93615.38;4988170;28;20470;-63
2023/01/18 09:03:21;;;;;;;0.40;0.20;;;;;;;22.00;28.95;93615.78;4988614;28;20445;-64
2023/01/18 09:05:48;;;;;;;0.17;0.13;;;;;;;22.77;28.36;93616.94;4987940;28;20971;-66
2023/01/18 09:08:16;;;;;;;0.10;0.10;;;;;;;23.83;26.79;93624.25;4988824;28;20441;-67
2023/01/18 09:10:43;;;;;;;0.10;0.10;;;;;;;23.20;27.38;93609.44;4975676;28;20473;-66
2023/01/18 09:13:10;;;;;;;0.00;0.00;;;;;;;22.34;28.30;93620.13;4988643;28;20787;-64
2023/01/18 09:15:37;;;;;;;0.43;0.43;;;;;;;23.22;27.40;93628.56;4988398;28;20446;-67
2023/01/18 09:18:06;;;;;;;0.00;0.00;;;;;;;22.42;28.52;93624.44;4989471;28;20532;-66
2023/01/18 09:20:34;;;;;;;0.10;0.10;;;;;;;22.34;28.79;93652.16;4992062;28;20964;-64
2023/01/18 09:23:06;;;;;;;0.10;0.10;;;;;;;23.00;27.77;93624.88;4991971;28;20476;-67
2023/01/18 09:25:36;;;;;;;0.10;0.10;;;;;;;23.93;26.42;93638.88;4979547;28;20532;-67
2023/01/18 09:28:04;;;;;;;0.10;0.10;;;;;;;24.00;26.14;93645.09;4992167;28;20477;-65
2023/01/18 09:30:31;;;;;;;0.40;0.40;;;;;;;22.14;28.51;93621.34;4991478;28;20821;-65
2023/01/18 09:32:59;;;;;;;0.20;0.20;;;;;;;22.33;28.30;93636.50;4992019;28;20446;-63
2023/01/18 09:35:27;;;;;;;0.10;0.10;;;;;;;21.98;28.65;93639.38;4991475;28;20508;-63
2023/01/18 09:37:55;;;;;;;0.10;0.10;;;;;;;22.65;27.68;93638.53;4991684;28;20479;-66
2023/01/18 09:40:35;;;;;;;0.00;0.00;;;;;;;22.15;28.22;93633.56;4991541;28;20531;-64
2023/01/18 09:43:02;;;;;;;0.27;0.27;;;;;;;21.31;29.77;93658.72;4991939;28;20449;-65
2023/01/18 09:45:33;;;;;;;0.10;0.10;;;;;;;21.66;29.35;93643.38;4991700;28;20536;-62
2023/01/18 09:48:27;;;;;;;0.20;0.20;;;;;;;21.80;29.26;93641.75;4991142;28;20985;-62
2023/01/18 09:50:59;;;;;;;0.10;0.10;;;;;;;22.42;28.34;93629.78;4990931;28;20532;-63
2023/01/18 09:53:52;;;;;;;0.10;0.10;;;;;;;21.06;29.80;93627.03;4991858;28;20492;-60
2023/01/18 09:56:28;;;;;;;3.20;1.17;;;;;;;22.55;28.12;93607.13;4985577;28;20469;-62
2023/01/18 09:59:34;;;;;;;0.03;0.03;;;;;;;22.25;28.50;93584.13;4991286;28;21038;-61
2023/01/18 10:02:11;;;;;;;0.00;0.00;;;;;;;22.72;27.71;93609.25;5001755;28;20486;-65
2023/01/18 10:04:42;;;;;;;0.10;0.10;;;;;;;22.68;27.93;93605.75;4991474;28;20453;-64
2023/01/18 10:07:17;;;;;;;0.10;0.10;;;;;;;21.74;29.14;93597.03;4991375;28;20489;-63
2023/01/18 10:09:49;;;;;;;0.10;0.10;;;;;;;21.76;28.80;93621.47;4990951;28;20603;-66
2023/01/18 10:12:42;;;;;;;0.00;0.00;;;;;;;22.01;28.67;93607.44;4990911;28;20485;-65
2023/01/18 10:15:26;;;;;;;0.00;0.00;;;;;;;21.90;28.72;93627.03;4991141;28;20449;-64
2023/01/18 10:17:56;;;;;;;0.10;0.10;;;;;;;22.48;28.05;93667.63;4989641;28;20515;-66
2023/01/18 10:20:44;;;;;;;0.10;0.10;;;;;;;22.13;28.10;93638.50;4970255;28;20478;-63
2023/01/18 10:23:14;;;;;;;0.10;0.10;;;;;;;22.23;28.04;93650.44;4987337;28;20988;-69
2023/01/18 10:25:51;;;;;;;0.20;0.20;;;;;;;22.64;27.83;93657.59;4991091;28;20496;-64
2023/01/18 10:28:26;;;;;;;0.10;0.10;;;;;;;22.05;28.16;93640.28;4990656;28;20619;-68
2023/01/18 10:31:35;;;;;;;2.00;1.70;;;;;;;21.48;28.43;93675.03;4989097;28;20568;-65
2023/01/18 10:34:10;;;;;;;0.10;0.10;;;;;;;22.23;27.99;93666.44;4990404;28;20945;-65
2023/01/18 10:36:42;;;;;;;0.10;0.10;;;;;;;21.61;28.40;93670.31;4989960;28;20453;-63
2023/01/18 10:39:37;;;;;;;0.10;0.10;;;;;;;22.56;27.29;93691.41;4990737;28;20484;-65
2023/01/18 10:42:28;;;;;;;0.40;0.20;;;;;;;22.62;27.54;93655.28;4990705;28;20581;-63
2023/01/18 10:44:54;;;;;;;0.00;0.00;;;;;;;21.39;28.86;93673.69;4990395;28;20446;-64
2023/01/18 10:47:21;;;;;;;0.67;0.67;;;;;;;22.17;27.82;93684.66;4990471;28;20446;-67
2023/01/18 10:49:50;;;;;;;0.10;0.10;;;;;;;23.46;27.05;93690.38;4990154;28;20544;-68
2023/01/18 10:52:28;;;;;;;0.10;0.10;;;;;;;22.00;28.23;93701.16;4990442;28;20523;-64
2023/01/18 10:55:01;;;;;;;0.40;0.40;;;;;;;21.91;28.02;93700.59;4990135;28;20496;-64
2023/01/18 10:57:35;;;;;;;2.03;0.60;;;;;;;21.67;28.65;93687.56;4990274;28;21039;-62
2023/01/18 11:00:20;;;;;;;0.17;0.17;;;;;;;21.81;28.45;93703.84;4990015;28;20447;-65
2023/01/18 11:02:49;;;;;;;0.00;0.00;;;;;;;23.33;26.67;93689.06;4990511;28;20883;-66
2023/01/18 11:05:22;;;;;;;0.20;0.20;;;;;;;22.00;28.05;93701.16;4988506;28;20956;-63
2023/01/18 11:08:11;;;;;;;0.30;0.30;;;;;;;21.84;28.30;93676.50;4990095;28;21216;-66
2023/01/18 11:10:39;;;;;;;8.23;1.50;;;;;;;22.76;27.21;93671.50;4989538;28;20442;-65
2023/01/18 11:13:46;;;;;;;0.30;0.30;;;;;;;21.27;28.91;93679.19;4990366;28;20446;-63
2023/01/18 11:16:19;;;;;;;0.10;0.10;;;;;;;22.62;27.54;93668.63;4981740;28;20459;-65
2023/01/18 11:19:16;;;;;;;0.13;0.13;;;;;;;22.33;27.74;93663.19;4977565;28;20504;-65
2023/01/18 11:21:45;;;;;;;0.07;0.07;;;;;;;23.01;27.00;93653.88;4971020;28;20900;-66
2023/01/18 11:24:41;;;;;;;10.43;0.87;;;;;;;21.87;28.09;93665.88;4982155;28;20976;-62
2023/01/18 11:27:15;;;;;;;0.00;0.00;;;;;;;22.41;27.40;93662.94;4976592;28;20449;-65
2023/01/18 11:29:44;;;;;;;0.10;0.10;;;;;;;23.23;26.72;93675.53;4989199;28;20452;-64
2023/01/18 11:32:23;;;;;;;0.10;0.10;;;;;;;23.91;25.62;93689.31;4990149;28;20862;-67
2023/01/18 11:34:53;;;;;;;2.00;0.97;;;;;;;23.51;26.16;93682.00;4989168;28;20453;-66
2023/01/18 11:37:36;;;;;;;0.00;0.00;;;;;;;22.55;27.11;93689.88;4989977;28;20545;-62
2023/01/18 11:40:25;;;;;;;0.10;0.10;;;;;;;23.21;26.75;93680.47;4989333;28;20965;-65
2023/01/18 11:43:23;;;;;;;0.03;0.03;;;;;;;23.64;26.49;93698.56;4989306;28;20441;-65
2023/01/18 11:45:58;;;;;;;0.00;0.00;;;;;;;22.50;26.99;93719.50;4990216;28;20465;-62
2023/01/18 11:48:32;;;;;;;1.33;0.97;;;;;;;23.12;26.85;93686.84;4989619;28;20453;-64
2023/01/18 11:51:09;;;;;;;0.00;0.00;;;;;;;23.62;26.23;93687.47;4988827;28;20450;-64
2023/01/18 11:53:35;;;;;;;0.13;0.13;;;;;;;23.19;26.29;93698.78;4989567;28;20449;-63
2023/01/18 11:56:13;;;;;;;0.10;0.10;;;;;;;23.79;25.62;93709.09;4988952;28;21026;-63
2023/01/18 11:58:40;;;;;;;0.10;0.10;;;;;;;24.66;24.82;93702.22;4989337;28;20516;-64
2023/01/18 12:01:36;;;;;;;0.03;0.03;;;;;;;24.71;24.65;93694.63;4987646;28;20999;-64
2023/01/18 12:04:10;;;;;;;0.20;0.20;;;;;;;25.39;23.76;93690.44;4989484;28;20814;-65
2023/01/18 12:06:53;;;;;;;0.00;0.00;;;;;;;24.88;24.01;93704.72;4988969;28;20457;-64
2023/01/18 12:09:34;;;;;;;0.63;0.63;;;;;;;24.65;24.53;93696.09;4978424;28;20508;-65
2023/01/18 12:12:16;;;;;;;0.23;0.23;;;;;;;25.51;23.58;93690.13;4988920;28;20206;-65
2023/01/18 12:15:04;;;;;;;0.00;0.00;;;;;;;27.01;22.45;93702.97;4988706;28;20457;-64
2023/01/18 12:18:06;;;;;;;0.10;0.10;;;;;;;28.66;20.68;93701.47;4989124;28;20449;-66
2023/01/18 12:20:48;;;;;;;0.20;0.20;;;;;;;28.78;19.95;93719.06;4978175;28;20761;-67
2023/01/18 12:23:27;;;;;;;0.87;0.87;;;;;;;30.14;19.04;93713.41;4989003;28;20210;-63
2023/01/18 12:25:57;;;;;;;0.13;0.13;;;;;;;31.11;18.59;93712.31;4988905;28;20632;-66
2023/01/18 12:28:43;;;;;;;0.17;0.17;;;;;;;28.76;19.58;93743.75;4987484;28;20202;-63
2023/01/18 12:31:29;;;;;;;0.10;0.10;;;;;;;26.79;21.58;93722.19;4988142;28;20241;-66